Aeroporto :
LOGIN :

Iscrizione | Disclaimer

   EN    FR    IT 

 










Sommario :    VFR   VFR Marginale   IFR   IFR Intensivo   IFR Molto Intensivo
Visibilità : 
Base nubi : 
>= 8 km
>= 3000ft
5 / 8 km
1000 / 3000 ft
1500m / 5 km
500 / 1000 ft
800 / 1500m
200 / 500 ft
< 800m
< 200 ft
Simboli :   Temporali  Nebbia  Neve Forte  Precipitazioni Forti  Vento > 20 kt
SIGMETs :   Varie  Temporali  Ghiacco  Turbolenza  Onda orograficha  Ceneri Vulcaniche






- Altitudine del aeroporto : 70 ft
- Codice IATA : WBG


ETNS - Schleswig

ULTIMO METAR :
  • 031320Z 08013KT 9999 FEW060CB SCT200 24/07 Q1004 BLU+BLU+ TEMPO GRN

METARs OBSOLETI :
  • 031220Z 08012KT 9999 FEW060CB SCT200 24/08 Q1004 BLU+BLU+ TEMPO GRN
  • 031120Z 08012KT 9999 FEW055 SCT200 24/08 Q1005 BLU+BLU+ TEMPO GRN

TAF TAF ETNS
Valido dal 03 a 14 ore il 03 a 23 ore UTC


031310Z 0314/0323 09010G20KT 9999 NSW FEW060 SCT180
TEMPO 0314/0323 08010G20KT 4000 SHRA SCT010 BKN050CB
PROB30 0314/0323 08010G20KT 2000 TSRA BKN010 BKN050CB BY ETGL



MetMap, La meteo Aeronautica in un colpo d'occhio ! - Copyright ORBIFLY Dicembre 2007 - Disclaimer

ORBIFLY MET'MAP TEAM :

Programmazione e sviluppo : Alexandra Zaïnal
Concezione : Baudouin d'Aumeries
Aiuto per la programmazione : Marc-Olivier Méhu
Supporto tecnico e logistico : Manuel Goepfert
Aiuto per la traduzione : Arnaldo La Scala

Contatto : metmap@orbifly.com




FONTI E CREDITI :

   NOAA